createdAt,value
2022-10-23T00:01:26.044Z,11.47
2022-10-23T00:03:09.974Z,11.53
2022-10-23T00:05:09.945Z,11.5
2022-10-23T00:07:09.973Z,11.4
2022-10-23T00:09:09.971Z,11.37
2022-10-23T00:11:09.963Z,11.39
2022-10-23T00:13:09.966Z,11.46
2022-10-23T00:15:09.951Z,11.53
2022-10-23T00:17:55.578Z,11.52
2022-10-23T00:19:55.532Z,11.55
2022-10-23T00:21:55.524Z,11.44
2022-10-23T00:23:55.581Z,11.41
2022-10-23T00:25:55.548Z,11.35
2022-10-23T00:27:55.565Z,11.47
2022-10-23T00:29:55.517Z,11.49
2022-10-23T00:32:52.751Z,11.51
2022-10-23T00:34:52.745Z,11.52
2022-10-23T00:36:52.743Z,11.54
2022-10-23T00:38:52.744Z,11.49
2022-10-23T00:40:52.749Z,11.38
2022-10-23T00:42:52.758Z,11.4
2022-10-23T00:44:52.732Z,11.36
2022-10-23T00:46:52.760Z,11.37
2022-10-23T00:47:58.176Z,11.43
2022-10-23T00:49:58.166Z,11.45
2022-10-23T00:51:58.169Z,11.43
2022-10-23T00:54:06.454Z,11.39
2022-10-23T00:55:58.177Z,11.36
2022-10-23T00:57:58.210Z,11.32
2022-10-23T00:59:58.174Z,11.29
2022-10-23T01:01:58.319Z,11.18
2022-10-23T01:04:01.267Z,10.95
2022-10-23T01:06:01.286Z,10.92
2022-10-23T01:08:01.297Z,10.88
2022-10-23T01:10:01.262Z,11
2022-10-23T01:12:01.260Z,11.22
2022-10-23T01:16:01.258Z,11.24
2022-10-23T01:18:32.743Z,11.21
2022-10-23T01:20:32.740Z,11.3
2022-10-23T01:22:32.723Z,11.32
2022-10-23T01:24:32.766Z,11.28
2022-10-23T01:26:32.715Z,11.29
2022-10-23T01:28:32.951Z,11.29
2022-10-23T01:30:32.850Z,11.28
2022-10-23T01:33:55.875Z,11.14
2022-10-23T01:35:56.112Z,11.18
2022-10-23T01:37:55.866Z,11.22
2022-10-23T01:39:55.889Z,11.29
2022-10-23T01:41:55.939Z,11.14
2022-10-23T01:43:55.867Z,11.16
2022-10-23T01:45:55.880Z,11.24
2022-10-23T01:48:58.622Z,11.41
2022-10-23T01:50:58.606Z,11.43
2022-10-23T01:52:58.571Z,11.42
2022-10-23T01:54:58.667Z,11.54
2022-10-23T01:56:58.767Z,11.65
2022-10-23T01:58:58.629Z,11.59
2022-10-23T02:00:58.634Z,11.64
2022-10-23T02:04:45.979Z,11.64
2022-10-23T02:06:45.993Z,11.79
2022-10-23T02:08:45.980Z,11.91
2022-10-23T02:10:45.985Z,11.7
2022-10-23T02:12:46.014Z,11.84
2022-10-23T02:14:45.976Z,12.02
2022-10-23T02:16:45.996Z,12.07
2022-10-23T02:19:43.550Z,11.52
2022-10-23T02:21:43.587Z,11.81
2022-10-23T02:23:43.555Z,11.58
2022-10-23T02:25:43.545Z,11.73
2022-10-23T02:27:43.576Z,11.95
2022-10-23T02:29:43.551Z,11.96
2022-10-23T02:31:43.518Z,11.98
2022-10-23T02:34:17.361Z,12.13
2022-10-23T02:36:17.301Z,12.18
2022-10-23T02:38:17.300Z,12.06
2022-10-23T02:40:17.297Z,12.05
2022-10-23T02:42:17.322Z,11.76
2022-10-23T02:44:17.334Z,11.82
2022-10-23T02:46:17.302Z,11.85
2022-10-23T02:48:17.314Z,11.91
2022-10-23T02:50:11.130Z,11.39
2022-10-23T02:52:11.136Z,11.46
2022-10-23T02:54:11.064Z,11.33
2022-10-23T02:56:11.058Z,11.3
2022-10-23T02:58:11.111Z,11.59
2022-10-23T03:00:11.059Z,11.69
2022-10-23T03:02:11.138Z,11.54
2022-10-23T03:05:12.384Z,11.69
2022-10-23T03:07:12.361Z,11.85
2022-10-23T03:09:12.347Z,11.98
2022-10-23T03:11:12.320Z,11.84
2022-10-23T03:13:12.348Z,11.87
2022-10-23T03:15:12.359Z,11.97
2022-10-23T03:17:12.530Z,12.05
2022-10-23T03:20:05.207Z,11.99
2022-10-23T03:22:05.190Z,11.7
2022-10-23T03:24:05.230Z,11.55
2022-10-23T03:26:05.241Z,11.55
2022-10-23T03:28:05.295Z,11.53
2022-10-23T03:30:05.254Z,11.71
2022-10-23T03:32:05.224Z,11.66
2022-10-23T03:35:36.027Z,11.51
2022-10-23T03:37:36.003Z,11.44
2022-10-23T03:39:36.001Z,11.22
2022-10-23T03:41:36.015Z,11.01
2022-10-23T03:43:35.982Z,11.11
2022-10-23T03:45:35.980Z,11.12
2022-10-23T03:47:35.969Z,10.95
2022-10-23T03:50:32.890Z,11.07
2022-10-23T03:52:32.873Z,10.97
2022-10-23T03:54:32.830Z,11.02
2022-10-23T03:56:32.852Z,10.86
2022-10-23T03:58:32.886Z,10.68
2022-10-23T04:00:32.942Z,10.74
2022-10-23T04:02:32.906Z,10.67
2022-10-23T04:05:39.188Z,10.39
2022-10-23T04:07:39.130Z,10.42
2022-10-23T04:09:39.150Z,10.52
2022-10-23T04:11:39.155Z,10.5
2022-10-23T04:13:39.115Z,10.43
2022-10-23T04:15:39.098Z,10.29
2022-10-23T04:17:39.105Z,10.11
2022-10-23T04:21:16.376Z,10.1
2022-10-23T04:23:16.357Z,9.67
2022-10-23T04:25:16.401Z,9.85
2022-10-23T04:27:16.321Z,9.98
2022-10-23T04:29:16.314Z,10.15
2022-10-23T04:31:16.347Z,10.28
2022-10-23T04:33:16.286Z,10.3
2022-10-23T04:36:03.128Z,10.12
2022-10-23T04:38:03.114Z,10.25
2022-10-23T04:40:03.091Z,10.33
2022-10-23T04:42:03.129Z,10.38
2022-10-23T04:44:03.131Z,10.35
2022-10-23T04:46:03.094Z,10.25
2022-10-23T04:48:03.129Z,10.36
2022-10-23T04:51:31.709Z,9.85
2022-10-23T04:53:31.627Z,10.09
2022-10-23T04:55:31.577Z,10.07
2022-10-23T04:57:31.622Z,10.05
2022-10-23T04:59:31.594Z,10.13
2022-10-23T05:01:31.759Z,10.25
2022-10-23T05:03:31.602Z,10.23
2022-10-23T05:06:28.752Z,10.26
2022-10-23T05:08:28.731Z,10.28
2022-10-23T05:10:28.730Z,10.27
2022-10-23T05:12:28.725Z,10.33
2022-10-23T05:14:28.773Z,10.32
2022-10-23T05:16:28.735Z,10.48
2022-10-23T05:18:28.763Z,10.53
2022-10-23T05:21:30.443Z,10.45
2022-10-23T05:23:30.478Z,10.42
2022-10-23T05:25:30.547Z,10.37
2022-10-23T05:27:30.455Z,10.4
2022-10-23T05:29:30.443Z,10
2022-10-23T05:31:30.452Z,10.24
2022-10-23T05:33:30.481Z,10.49
2022-10-23T05:36:47.513Z,10.64
2022-10-23T05:38:47.479Z,10.72
2022-10-23T05:40:47.539Z,10.66
2022-10-23T05:42:47.924Z,10.76
2022-10-23T05:44:47.466Z,10.63
2022-10-23T05:46:47.522Z,10.24
2022-10-23T05:48:47.547Z,10.57
2022-10-23T05:51:37.611Z,11.12
2022-10-23T05:53:38.928Z,11.44
2022-10-23T05:55:37.456Z,11.67
2022-10-23T05:57:37.461Z,11.57
2022-10-23T05:59:37.422Z,11.31
2022-10-23T06:01:37.656Z,11.3
2022-10-23T06:03:37.450Z,11.57
2022-10-23T06:07:11.300Z,12.28
2022-10-23T06:09:11.280Z,12.56
2022-10-23T06:11:11.262Z,12.57
2022-10-23T06:13:11.297Z,12.52
2022-10-23T06:15:11.316Z,12.89
2022-10-23T06:17:11.242Z,13.14
2022-10-23T06:19:11.313Z,13.42
2022-10-23T06:22:07.854Z,13.74
2022-10-23T06:24:07.893Z,13.67
2022-10-23T06:26:07.810Z,13.26
2022-10-23T06:28:07.838Z,12.42
2022-10-23T06:30:07.780Z,12.52
2022-10-23T06:32:07.789Z,12.48
2022-10-23T06:34:07.810Z,12.52
2022-10-23T06:37:37.709Z,12.47
2022-10-23T06:39:37.692Z,12.52
2022-10-23T06:41:37.703Z,12.95
2022-10-23T06:43:37.764Z,12.68
2022-10-23T06:45:37.646Z,12.67
2022-10-23T06:47:37.692Z,13.38
2022-10-23T06:49:37.649Z,13.35
2022-10-23T06:52:50.160Z,13.59
2022-10-23T06:54:50.134Z,13.29
2022-10-23T06:56:50.120Z,13.26
2022-10-23T06:58:50.120Z,12.94
2022-10-23T07:00:50.135Z,13.03
2022-10-23T07:02:50.207Z,13.31
2022-10-23T07:04:50.113Z,13.46
2022-10-23T07:07:54.318Z,13.78
2022-10-23T07:09:54.285Z,14.11
2022-10-23T07:11:54.269Z,13.86
2022-10-23T07:13:54.326Z,14.21
2022-10-23T07:15:54.261Z,14.33
2022-10-23T07:17:54.282Z,14.62
2022-10-23T07:19:54.295Z,14.96
2022-10-23T07:22:38.353Z,15.31
2022-10-23T07:24:38.343Z,15.16
2022-10-23T07:26:38.427Z,15.31
2022-10-23T07:28:38.405Z,15.59
2022-10-23T07:30:38.426Z,15.83
2022-10-23T07:32:38.331Z,16.12
2022-10-23T07:34:38.438Z,16.2
2022-10-23T07:38:00.189Z,16.53
2022-10-23T07:40:00.137Z,16.81
2022-10-23T07:42:00.161Z,17.2
2022-10-23T07:44:00.153Z,17.51
2022-10-23T07:46:00.128Z,17.69
2022-10-23T07:48:00.179Z,17.83
2022-10-23T07:50:00.136Z,18.04
2022-10-23T07:53:33.458Z,18.4
2022-10-23T07:55:33.428Z,18.64
2022-10-23T07:57:33.545Z,18.75
2022-10-23T07:59:35.794Z,18.85
2022-10-23T08:01:33.639Z,19.13
2022-10-23T08:03:33.477Z,19.36
2022-10-23T08:05:33.435Z,19.6
2022-10-23T08:08:27.123Z,19.15
2022-10-23T08:10:27.040Z,19.33
2022-10-23T08:12:27.049Z,19.62
2022-10-23T08:14:27.053Z,19.85
2022-10-23T08:16:27.045Z,19.8
2022-10-23T08:18:27.027Z,19.55
2022-10-23T08:20:27.037Z,19.78
2022-10-23T08:23:16.204Z,19.47
2022-10-23T08:25:16.216Z,19.46
2022-10-23T08:27:16.192Z,19.22
2022-10-23T08:29:16.160Z,19.04
2022-10-23T08:31:16.234Z,19.87
2022-10-23T08:33:16.151Z,19.55
2022-10-23T08:35:16.144Z,19.23
2022-10-23T08:38:51.334Z,19.45
2022-10-23T08:40:51.288Z,20.12
2022-10-23T08:42:51.319Z,20.64
2022-10-23T08:44:51.318Z,21.04
2022-10-23T08:46:51.303Z,21.35
2022-10-23T08:48:51.275Z,21.45
2022-10-23T08:50:51.353Z,21.17
2022-10-23T08:53:38.219Z,20.91
2022-10-23T08:55:38.245Z,21.22
2022-10-23T08:57:39.958Z,21.64
2022-10-23T08:59:38.195Z,21.14
2022-10-23T09:01:38.420Z,20.67
2022-10-23T09:03:38.252Z,21.1
2022-10-23T09:05:38.200Z,21.18
2022-10-23T09:09:07.400Z,20.12
2022-10-23T09:11:07.437Z,20.83
2022-10-23T09:13:07.395Z,21.1
2022-10-23T09:15:07.395Z,20.91
2022-10-23T09:17:07.466Z,21.25
2022-10-23T09:19:10.032Z,21.47
2022-10-23T09:21:07.410Z,20.67
2022-10-23T09:23:58.357Z,21.06
2022-10-23T09:25:58.345Z,20.96
2022-10-23T09:27:59.117Z,21.47
2022-10-23T09:29:58.393Z,21.35
2022-10-23T09:31:58.365Z,21.19
2022-10-23T09:33:58.390Z,21.37
2022-10-23T09:35:58.375Z,21.17
2022-10-23T09:39:13.010Z,21.38
2022-10-23T09:41:13.039Z,21.93
2022-10-23T09:43:13.006Z,22.55
2022-10-23T09:45:13.045Z,22.7
2022-10-23T09:47:13.013Z,22.79
2022-10-23T09:49:12.983Z,22.91
2022-10-23T09:51:13.034Z,23.14
2022-10-23T09:54:50.257Z,22.43
2022-10-23T09:56:50.279Z,22.36
2022-10-23T09:58:50.238Z,22.36
2022-10-23T10:00:52.202Z,22.19
2022-10-23T10:02:50.300Z,21.74
2022-10-23T10:04:50.377Z,22.03
2022-10-23T10:06:50.301Z,22.66
2022-10-23T10:09:50.634Z,22.67
2022-10-23T10:11:50.674Z,22.75
2022-10-23T10:13:50.700Z,23.07
2022-10-23T10:15:50.638Z,23
2022-10-23T10:17:50.706Z,23.1
2022-10-23T10:19:50.623Z,23.25
2022-10-23T10:21:50.626Z,22.86
2022-10-23T10:24:50.998Z,22.97
2022-10-23T10:26:50.967Z,22.82
2022-10-23T10:28:50.993Z,22.65
2022-10-23T10:30:51.001Z,22.65
2022-10-23T10:32:50.989Z,22.67
2022-10-23T10:34:51.046Z,22.58
2022-10-23T10:36:50.968Z,22.64
2022-10-23T10:39:37.324Z,23.04
2022-10-23T10:41:37.283Z,23.07
2022-10-23T10:43:37.312Z,23.18
2022-10-23T10:45:37.260Z,23.65
2022-10-23T10:47:37.337Z,23.87
2022-10-23T10:49:37.248Z,24.02
2022-10-23T10:51:37.279Z,24.18
2022-10-23T10:55:11.659Z,22.97
2022-10-23T10:57:11.722Z,23.31
2022-10-23T10:59:11.697Z,23.1
2022-10-23T11:01:11.782Z,22.82
2022-10-23T11:03:11.657Z,22.33
2022-10-23T11:05:11.703Z,22.73
2022-10-23T11:07:11.651Z,23.27
2022-10-23T11:10:19.723Z,23.56
2022-10-23T11:12:19.740Z,23.18
2022-10-23T11:14:19.738Z,22.96
2022-10-23T11:16:19.687Z,23.13
2022-10-23T11:18:19.677Z,23.21
2022-10-23T11:20:19.697Z,23.24
2022-10-23T11:22:19.716Z,23.52
2022-10-23T11:25:27.816Z,23.26
2022-10-23T11:27:27.803Z,22.7
2022-10-23T11:29:27.767Z,22.59
2022-10-23T11:31:27.797Z,23.06
2022-10-23T11:33:27.763Z,23.31
2022-10-23T11:35:27.766Z,23.58
2022-10-23T11:37:27.759Z,23.32
2022-10-23T11:40:40.718Z,23.27
2022-10-23T11:42:41.000Z,23.64
2022-10-23T11:44:40.677Z,22.97
2022-10-23T11:46:40.845Z,23.46
2022-10-23T11:48:40.721Z,23.44
2022-10-23T11:50:40.645Z,23.26
2022-10-23T11:52:45.400Z,23.61
2022-10-23T11:55:32.010Z,23.03
2022-10-23T11:57:31.996Z,23.15
2022-10-23T11:59:32.036Z,23.35
2022-10-23T12:01:32.040Z,23.2
2022-10-23T12:03:31.979Z,22.74
2022-10-23T12:05:32.025Z,22.76
2022-10-23T12:07:31.994Z,22.53
2022-10-23T12:11:10.961Z,22.78
2022-10-23T12:13:10.906Z,22.65
2022-10-23T12:15:10.973Z,23.23
2022-10-23T12:17:10.892Z,23.16
2022-10-23T12:19:10.890Z,23.26
2022-10-23T12:21:10.914Z,22.96
2022-10-23T12:23:10.878Z,23.32
2022-10-23T12:25:45.428Z,23.14
2022-10-23T12:27:45.583Z,23.19
2022-10-23T12:29:45.453Z,22.87
2022-10-23T12:31:47.006Z,23.29
2022-10-23T12:33:45.411Z,23.49
2022-10-23T12:35:45.422Z,23.26
2022-10-23T12:37:45.403Z,23.38
2022-10-23T12:41:32.821Z,23.41
2022-10-23T12:43:32.784Z,23.39
2022-10-23T12:45:32.784Z,23.47
2022-10-23T12:47:32.924Z,23.54
2022-10-23T12:49:32.791Z,23.67
2022-10-23T12:51:32.777Z,23.43
2022-10-23T12:53:32.792Z,23.44
2022-10-23T12:56:39.132Z,22.77
2022-10-23T12:58:39.065Z,23.19
2022-10-23T13:00:39.118Z,23.34
2022-10-23T13:02:39.254Z,23.48
2022-10-23T13:04:39.178Z,23.34
2022-10-23T13:06:39.438Z,23.1
2022-10-23T13:08:39.136Z,22.83
2022-10-23T13:11:34.221Z,22.81
2022-10-23T13:13:34.448Z,22.91
2022-10-23T13:15:34.119Z,23.07
2022-10-23T13:17:33.950Z,22.88
2022-10-23T13:19:33.956Z,23.04
2022-10-23T13:21:33.992Z,22.99
2022-10-23T13:23:33.942Z,22.82
2022-10-23T13:26:51.704Z,22.68
2022-10-23T13:28:51.704Z,22.66
2022-10-23T13:30:51.798Z,22.61
2022-10-23T13:32:51.703Z,22.64
2022-10-23T13:34:58.034Z,22.76
2022-10-23T13:36:53.500Z,22.53
2022-10-23T13:38:51.695Z,22.64
2022-10-23T13:41:30.581Z,22.54
2022-10-23T13:43:30.613Z,22.26
2022-10-23T13:45:30.622Z,22.41
2022-10-23T13:47:30.568Z,22.45
2022-10-23T13:49:30.617Z,22.5
2022-10-23T13:51:30.619Z,22.36
2022-10-23T13:53:30.570Z,22.1
2022-10-23T13:56:57.810Z,21.91
2022-10-23T13:58:57.912Z,21.87
2022-10-23T14:00:58.051Z,21.94
2022-10-23T14:02:57.905Z,21.92
2022-10-23T14:04:57.820Z,21.71
2022-10-23T14:06:57.822Z,21.71
2022-10-23T14:08:57.880Z,21.79
2022-10-23T14:11:41.858Z,21.75
2022-10-23T14:13:41.885Z,21.65
2022-10-23T14:15:41.830Z,21.58
2022-10-23T14:17:41.863Z,21.53
2022-10-23T14:19:41.833Z,21.57
2022-10-23T14:21:41.839Z,21.63
2022-10-23T14:23:41.862Z,21.5
2022-10-23T14:25:41.828Z,21.38
2022-10-23T14:27:39.142Z,21.39
2022-10-23T14:29:39.132Z,21.3
2022-10-23T14:31:39.189Z,21.15
2022-10-23T14:33:39.137Z,21.2
2022-10-23T14:35:39.115Z,21.18
2022-10-23T14:37:39.177Z,21.13
2022-10-23T14:39:39.147Z,21.14
2022-10-23T14:42:09.967Z,21.16
2022-10-23T14:44:09.966Z,21.1
2022-10-23T14:46:10.032Z,20.98
2022-10-23T14:48:09.980Z,20.98
2022-10-23T14:50:10.008Z,20.96
2022-10-23T14:52:10.019Z,20.98
2022-10-23T14:54:09.975Z,20.96
2022-10-23T14:57:41.561Z,20.81
2022-10-23T14:59:41.266Z,20.75
2022-10-23T15:01:43.465Z,20.65
2022-10-23T15:03:41.272Z,20.67
2022-10-23T15:05:41.275Z,20.51
2022-10-23T15:07:41.302Z,20.53
2022-10-23T15:09:41.295Z,20.47
2022-10-23T15:12:46.382Z,20.28
2022-10-23T15:14:45.992Z,20.16
2022-10-23T15:16:45.962Z,20.04
2022-10-23T15:18:45.958Z,19.92
2022-10-23T15:20:45.965Z,19.78
2022-10-23T15:22:46.230Z,19.67
2022-10-23T15:24:46.008Z,19.47
2022-10-23T15:27:44.890Z,19.33
2022-10-23T15:29:44.722Z,19.24
2022-10-23T15:31:44.671Z,19.17
2022-10-23T15:33:44.633Z,19.12
2022-10-23T15:35:44.645Z,18.98
2022-10-23T15:37:44.824Z,18.92
2022-10-23T15:39:44.669Z,18.9
2022-10-23T15:42:54.529Z,18.52
2022-10-23T15:44:54.608Z,18.55
2022-10-23T15:46:54.535Z,18.44
2022-10-23T15:48:54.501Z,18.4
2022-10-23T15:50:54.554Z,18.32
2022-10-23T15:52:54.513Z,18.16
2022-10-23T15:54:54.547Z,18.08
2022-10-23T15:57:55.217Z,18.06
2022-10-23T15:59:55.178Z,18.03
2022-10-23T16:01:55.357Z,17.95
2022-10-23T16:03:55.238Z,17.9
2022-10-23T16:05:55.188Z,17.82
2022-10-23T16:07:55.223Z,17.7
2022-10-23T16:09:55.191Z,17.51
2022-10-23T16:11:55.208Z,17.47
2022-10-23T16:13:00.597Z,17.48
2022-10-23T16:15:00.628Z,17.43
2022-10-23T16:17:00.711Z,17.27
2022-10-23T16:19:00.685Z,17.22
2022-10-23T16:21:00.582Z,17.22
2022-10-23T16:23:00.583Z,17.19
2022-10-23T16:25:00.615Z,17.15
2022-10-23T16:27:00.560Z,17.08
2022-10-23T16:28:49.183Z,16.96
2022-10-23T16:30:49.177Z,16.99
2022-10-23T16:32:49.447Z,16.89
2022-10-23T16:34:49.350Z,16.83
2022-10-23T16:36:49.234Z,16.82
2022-10-23T16:38:49.327Z,16.86
2022-10-23T16:40:49.272Z,16.78
2022-10-23T16:43:56.297Z,16.65
2022-10-23T16:45:56.265Z,16.6
2022-10-23T16:47:56.327Z,16.62
2022-10-23T16:49:56.267Z,16.52
2022-10-23T16:51:56.327Z,16.39
2022-10-23T16:53:56.278Z,16.39
2022-10-23T16:55:56.259Z,16.34
2022-10-23T16:58:30.599Z,16.27
2022-10-23T17:00:30.590Z,16.28
2022-10-23T17:02:30.638Z,16.2
2022-10-23T17:04:30.605Z,16.15
2022-10-23T17:06:30.640Z,16.2
2022-10-23T17:08:30.585Z,16.15
2022-10-23T17:10:30.579Z,16.17
2022-10-23T17:12:30.582Z,16.01
2022-10-23T17:14:32.532Z,15.99
2022-10-23T17:16:32.558Z,15.94
2022-10-23T17:18:32.505Z,15.88
2022-10-23T17:20:32.509Z,15.87
2022-10-23T17:22:32.513Z,15.89
2022-10-23T17:24:32.500Z,15.82
2022-10-23T17:26:32.478Z,15.71
2022-10-23T17:29:02.734Z,15.7
2022-10-23T17:31:02.817Z,15.67
2022-10-23T17:33:02.741Z,15.65
2022-10-23T17:35:02.738Z,15.56
2022-10-23T17:37:02.791Z,15.52
2022-10-23T17:39:02.833Z,15.55
2022-10-23T17:41:02.734Z,15.58
2022-10-23T17:44:44.258Z,15.48
2022-10-23T17:46:44.201Z,15.37
2022-10-23T17:48:44.207Z,15.34
2022-10-23T17:50:44.201Z,15.34
2022-10-23T17:52:44.438Z,15.31
2022-10-23T17:54:44.203Z,15.29
2022-10-23T17:56:44.233Z,15.25
2022-10-23T17:59:49.394Z,15.11
2022-10-23T18:01:49.695Z,15.15
2022-10-23T18:03:49.384Z,15.18
2022-10-23T18:05:49.418Z,15.06
2022-10-23T18:07:49.440Z,15.02
2022-10-23T18:09:49.407Z,15.04
2022-10-23T18:11:49.531Z,15.08
2022-10-23T18:14:46.699Z,14.95
2022-10-23T18:16:46.731Z,14.97
2022-10-23T18:18:46.732Z,14.89
2022-10-23T18:20:46.826Z,14.88
2022-10-23T18:22:46.934Z,14.83
2022-10-23T18:24:46.713Z,14.84
2022-10-23T18:26:46.704Z,14.81
2022-10-23T18:29:40.449Z,14.75
2022-10-23T18:31:40.510Z,14.81
2022-10-23T18:33:40.456Z,14.67
2022-10-23T18:35:40.570Z,14.69
2022-10-23T18:37:41.479Z,14.59
2022-10-23T18:39:40.491Z,14.54
2022-10-23T18:41:40.561Z,14.6
2022-10-23T18:44:58.595Z,14.48
2022-10-23T18:46:58.263Z,14.44
2022-10-23T18:48:58.261Z,14.41
2022-10-23T18:50:58.280Z,14.41
2022-10-23T18:52:58.279Z,14.25
2022-10-23T18:54:58.241Z,14.35
2022-10-23T18:56:58.285Z,14.43
2022-10-23T19:00:33.517Z,14.39
2022-10-23T19:02:33.655Z,14.35
2022-10-23T19:04:35.551Z,14.25
2022-10-23T19:06:33.534Z,14.28
2022-10-23T19:08:33.525Z,14.28
2022-10-23T19:10:33.528Z,14.26
2022-10-23T19:12:33.528Z,14.22
2022-10-23T19:15:31.879Z,14.09
2022-10-23T19:17:31.905Z,14.05
2022-10-23T19:19:31.851Z,14.08
2022-10-23T19:21:31.876Z,14.05
2022-10-23T19:23:31.829Z,13.99
2022-10-23T19:25:31.829Z,13.95
2022-10-23T19:27:31.863Z,13.99
2022-10-23T19:30:51.169Z,13.98
2022-10-23T19:32:51.188Z,14.02
2022-10-23T19:34:51.120Z,13.98
2022-10-23T19:36:51.110Z,13.94
2022-10-23T19:38:51.390Z,13.87
2022-10-23T19:40:51.123Z,13.83
2022-10-23T19:42:51.175Z,13.88
2022-10-23T19:45:21.344Z,13.85
2022-10-23T19:47:21.265Z,13.73
2022-10-23T19:49:21.265Z,13.7
2022-10-23T19:51:21.207Z,13.76
2022-10-23T19:53:21.207Z,13.63
2022-10-23T19:55:21.253Z,13.72
2022-10-23T19:57:21.894Z,13.73
2022-10-23T19:59:21.208Z,13.67
2022-10-23T20:00:36.273Z,13.66
2022-10-23T20:04:36.378Z,13.59
2022-10-23T20:06:36.300Z,13.47
2022-10-23T20:08:36.240Z,13.54
2022-10-23T20:10:36.257Z,13.54
2022-10-23T20:12:36.242Z,13.59
2022-10-23T20:14:36.275Z,13.5
2022-10-23T20:16:37.024Z,13.5
2022-10-23T20:18:37.021Z,13.42
2022-10-23T20:20:37.030Z,13.27
2022-10-23T20:22:38.643Z,13.07
2022-10-23T20:24:37.002Z,13.2
2022-10-23T20:26:36.985Z,13.14
2022-10-23T20:28:37.037Z,13.18
2022-10-23T20:31:17.468Z,13.2
2022-10-23T20:33:17.451Z,13.23
2022-10-23T20:35:17.481Z,13.26
2022-10-23T20:37:17.471Z,13.3
2022-10-23T20:39:17.448Z,13.21
2022-10-23T20:41:17.437Z,13.07
2022-10-23T20:43:19.786Z,13.2
2022-10-23T20:46:15.881Z,13.14
2022-10-23T20:48:15.856Z,13.01
2022-10-23T20:50:15.833Z,13.05
2022-10-23T20:52:15.900Z,13.05
2022-10-23T20:54:15.833Z,13.08
2022-10-23T20:56:15.879Z,13.05
2022-10-23T20:58:15.840Z,12.98
2022-10-23T21:01:57.891Z,12.94
2022-10-23T21:03:57.715Z,12.9
2022-10-23T21:05:57.746Z,12.86
2022-10-23T21:07:57.807Z,12.82
2022-10-23T21:09:57.727Z,12.56
2022-10-23T21:11:57.747Z,12.56
2022-10-23T21:13:57.710Z,12.59
2022-10-23T21:17:08.513Z,12.53
2022-10-23T21:19:08.508Z,12.64
2022-10-23T21:21:08.478Z,12.67
2022-10-23T21:23:08.552Z,12.66
2022-10-23T21:25:08.486Z,12.56
2022-10-23T21:27:08.523Z,12.54
2022-10-23T21:29:20.428Z,12.59
2022-10-23T21:32:00.587Z,12.63
2022-10-23T21:34:00.658Z,12.55
2022-10-23T21:36:11.732Z,12.61
2022-10-23T21:38:00.574Z,12.65
2022-10-23T21:40:00.623Z,12.58
2022-10-23T21:42:00.587Z,12.55
2022-10-23T21:44:00.576Z,12.57
2022-10-23T21:46:57.265Z,12.52
2022-10-23T21:48:57.287Z,12.49
2022-10-23T21:50:57.299Z,12.47
2022-10-23T21:52:57.250Z,12.53
2022-10-23T21:54:57.262Z,12.47
2022-10-23T21:56:57.316Z,12.47
2022-10-23T21:58:57.291Z,12.49
2022-10-23T22:02:13.597Z,12.54
2022-10-23T22:04:13.390Z,12.46
2022-10-23T22:06:13.397Z,12.43
2022-10-23T22:08:13.393Z,12.35
2022-10-23T22:10:13.400Z,12.31
2022-10-23T22:12:13.487Z,12.3
2022-10-23T22:14:13.396Z,12.27
2022-10-23T22:17:33.050Z,12.32
2022-10-23T22:19:33.004Z,12.16
2022-10-23T22:21:33.013Z,12.27
2022-10-23T22:23:33.013Z,12.28
2022-10-23T22:25:32.989Z,12.29
2022-10-23T22:27:33.047Z,12.24
2022-10-23T22:29:32.985Z,12.24
2022-10-23T22:33:06.181Z,12.24
2022-10-23T22:35:06.163Z,12.23
2022-10-23T22:37:06.212Z,12.13
2022-10-23T22:39:06.201Z,12.17
2022-10-23T22:41:06.215Z,12.21
2022-10-23T22:43:06.169Z,12.08
2022-10-23T22:45:06.144Z,12.21
2022-10-23T22:48:05.768Z,11.89
2022-10-23T22:50:05.735Z,11.93
2022-10-23T22:52:05.600Z,12.01
2022-10-23T22:54:05.637Z,12.06
2022-10-23T22:56:05.719Z,12.06
2022-10-23T22:58:05.613Z,12.05
2022-10-23T23:00:05.632Z,12.05
2022-10-23T23:03:28.705Z,12
2022-10-23T23:05:28.610Z,11.99
2022-10-23T23:07:28.638Z,11.87
2022-10-23T23:09:28.626Z,11.8
2022-10-23T23:11:28.784Z,11.78
2022-10-23T23:13:28.605Z,11.76
2022-10-23T23:15:28.645Z,11.78
2022-10-23T23:18:02.654Z,11.83
2022-10-23T23:20:02.671Z,11.87
2022-10-23T23:22:02.637Z,11.86
2022-10-23T23:24:02.658Z,11.89
2022-10-23T23:26:02.710Z,11.99
2022-10-23T23:28:02.648Z,12.03
2022-10-23T23:30:02.682Z,12.04
2022-10-23T23:33:32.397Z,11.56
2022-10-23T23:35:32.413Z,11.47
2022-10-23T23:37:32.351Z,11.44
2022-10-23T23:39:32.350Z,11.45
2022-10-23T23:41:32.377Z,11.67
2022-10-23T23:43:32.363Z,11.76
2022-10-23T23:45:32.394Z,11.77
2022-10-23T23:48:54.507Z,11.77
2022-10-23T23:50:54.488Z,11.79
2022-10-23T23:52:54.454Z,11.76
2022-10-23T23:54:54.467Z,11.67
2022-10-23T23:56:54.506Z,11.64
2022-10-23T23:58:54.458Z,11.67
